Skip Navigation Links Skip Navigation Links

Current Weather

Santacruz Apt, Mumbai (Bombay), India

For information only: do not use for flight planning or navigation.
Latest weather
Observation time Monday, December 16, 2019 2:00 PM IST
Local time Monday, December 16, 2019 2:33 PM IST
Flight conditions Instrument Meteorological Conditions
Winds
Wind direction West (280°)
Wind speed 9 mph
Visibility 1.9 mi.
Present weather smoke
Sky condition
Ceiling unlimited
Temperature 84°F
Dewpoint 70°F
Altimeter 29.88 in.Hg
Derived measurements
Relative humidity 62%
Heat index 88°F
Density altitude 2031 ft.
Remarks
No significant changes expected in the next two hours.
METAR VABB 160830Z 28008KT 3000 FU NSC 29/21 Q1012 NOSIG

Settings

Location code

InnerDrive.Weather 4.0.6770.0 Release CLR 4.0.30319.42000
Copyright ©2018 Inner Drive Technology. All rights reserved. Portions Copyright ©1986-2018 David Braverman.

Find weather

Site navigation


Skip Navigation Links

Place info

Page info

PayPal - The safer, easier way to pay online!

Return home.

Copyright ©2019 Inner Drive Technology. Purveyors of fine, hand-crafted computer software. Page printed 2019-12-16T09:03:06 UTC.